createdAt,value
2023-04-15T00:01:27.084Z,7.00
2023-04-15T00:04:20.710Z,7.20
2023-04-15T00:07:16.470Z,6.10
2023-04-15T00:10:12.353Z,6.80
2023-04-15T00:13:06.322Z,7.80
2023-04-15T00:15:59.024Z,6.90
2023-04-15T00:18:52.070Z,6.60
2023-04-15T00:21:45.299Z,5.80
2023-04-15T00:24:29.335Z,5.80
2023-04-15T00:27:22.392Z,4.50
2023-04-15T00:30:10.657Z,3.20
2023-04-15T00:32:55.491Z,2.70
2023-04-15T00:35:28.127Z,2.60
2023-04-15T00:38:14.197Z,2.50
2023-04-15T00:41:07.787Z,2.20
2023-04-15T00:44:00.791Z,2.50
2023-04-15T00:46:48.132Z,2.70
2023-04-15T00:49:20.928Z,3.00
2023-04-15T00:52:16.214Z,3.60
2023-04-15T00:54:58.864Z,2.50
2023-04-15T00:57:52.122Z,2.30
2023-04-15T01:00:46.280Z,2.50
2023-04-15T01:03:32.390Z,2.80
2023-04-15T01:06:27.217Z,1.90
2023-04-15T01:09:03.529Z,2.20
2023-04-15T01:11:57.269Z,1.90
2023-04-15T01:14:50.326Z,1.90
2023-04-15T01:17:43.759Z,2.00
2023-04-15T01:20:37.719Z,1.60
2023-04-15T01:23:19.539Z,1.50
2023-04-15T01:26:13.061Z,1.90
2023-04-15T01:29:06.762Z,1.70
2023-04-15T01:31:59.548Z,1.60
2023-04-15T01:34:53.028Z,1.60
2023-04-15T01:37:29.491Z,1.70
2023-04-15T01:40:23.546Z,1.60
2023-04-15T01:43:16.840Z,1.80
2023-04-15T01:46:10.625Z,1.90
2023-04-15T01:49:03.460Z,1.90
2023-04-15T01:52:47.825Z,1.80
2023-04-15T01:58:03.765Z,1.90
2023-04-15T02:00:50.316Z,1.70
2023-04-15T02:03:43.570Z,1.90
2023-04-15T02:06:36.782Z,1.80
2023-04-15T02:09:30.102Z,1.90
2023-04-15T02:12:23.186Z,1.80
2023-04-15T02:15:17.445Z,2.00
2023-04-15T02:18:11.972Z,1.80
2023-04-15T02:21:07.254Z,1.50
2023-04-15T02:24:00.003Z,1.90
2023-04-15T02:26:46.812Z,1.70
2023-04-15T02:29:23.648Z,1.50
2023-04-15T02:32:07.402Z,1.90
2023-04-15T02:34:51.998Z,1.90
2023-04-15T02:37:37.153Z,1.70
2023-04-15T02:40:30.857Z,1.70
2023-04-15T02:43:22.648Z,1.90
2023-04-15T02:46:15.440Z,1.50
2023-04-15T02:49:08.657Z,1.50
2023-04-15T02:52:01.719Z,1.40
2023-04-15T02:54:44.449Z,1.40
2023-04-15T02:57:39.223Z,1.40
2023-04-15T03:00:32.311Z,1.30
2023-04-15T03:03:11.089Z,1.40
2023-04-15T03:06:06.225Z,1.30
2023-04-15T03:08:50.476Z,1.20
2023-04-15T03:11:43.288Z,1.50
2023-04-15T03:14:35.973Z,1.30
2023-04-15T03:17:28.969Z,1.70
2023-04-15T03:20:22.024Z,1.50
2023-04-15T03:23:13.560Z,1.50
2023-04-15T03:26:07.074Z,1.30
2023-04-15T03:29:00.196Z,1.40
2023-04-15T03:31:53.252Z,1.60
2023-04-15T03:34:46.123Z,1.30
2023-04-15T03:37:38.809Z,1.40
2023-04-15T03:40:31.748Z,1.30
2023-04-15T03:43:24.329Z,1.20
2023-04-15T03:46:17.039Z,1.70
2023-04-15T03:49:10.940Z,1.60
2023-04-15T03:51:56.746Z,1.30
2023-04-15T03:54:51.577Z,1.40
2023-04-15T03:57:39.144Z,1.70
2023-04-15T04:00:22.915Z,1.60
2023-04-15T04:03:06.738Z,1.50
2023-04-15T04:05:59.662Z,1.70
2023-04-15T04:08:52.060Z,1.30
2023-04-15T04:11:45.834Z,1.40
2023-04-15T04:14:38.465Z,1.70
2023-04-15T04:17:31.119Z,1.60
2023-04-15T04:20:24.421Z,1.60
2023-04-15T04:23:09.289Z,1.50
2023-04-15T04:26:01.269Z,1.50
2023-04-15T04:28:52.942Z,1.60
2023-04-15T04:31:40.162Z,1.60
2023-04-15T04:34:26.728Z,1.40
2023-04-15T04:37:19.810Z,1.40
2023-04-15T04:40:14.261Z,1.70
2023-04-15T04:43:07.109Z,1.60
2023-04-15T04:45:41.392Z,1.50
2023-04-15T04:48:34.352Z,1.80
2023-04-15T04:51:28.183Z,1.70
2023-04-15T04:54:21.422Z,1.40
2023-04-15T04:57:10.245Z,1.80
2023-04-15T04:59:42.896Z,1.90
2023-04-15T05:02:36.621Z,2.00
2023-04-15T05:05:29.407Z,1.60
2023-04-15T05:08:22.266Z,1.70
2023-04-15T05:11:16.376Z,1.70
2023-04-15T05:14:09.513Z,1.80
2023-04-15T05:17:02.481Z,2.00
2023-04-15T05:19:55.128Z,1.70
2023-04-15T05:22:48.213Z,1.60
2023-04-15T05:25:32.504Z,1.90
2023-04-15T05:28:25.398Z,1.60
2023-04-15T05:31:08.802Z,1.60
2023-04-15T05:33:50.556Z,1.90
2023-04-15T05:36:26.600Z,1.70
2023-04-15T05:39:19.427Z,1.80
2023-04-15T05:42:12.269Z,1.60
2023-04-15T05:45:09.168Z,1.70
2023-04-15T05:47:54.467Z,1.70
2023-04-15T05:50:32.408Z,1.40
2023-04-15T05:53:16.352Z,1.60
2023-04-15T05:55:49.099Z,1.60
2023-04-15T05:58:24.724Z,1.80
2023-04-15T06:00:58.920Z,1.70
2023-04-15T06:03:33.814Z,1.60
2023-04-15T06:06:07.803Z,2.30
2023-04-15T06:08:40.664Z,1.80
2023-04-15T06:11:16.426Z,1.60
2023-04-15T06:13:51.922Z,1.40
2023-04-15T06:16:33.664Z,1.40
2023-04-15T06:19:06.350Z,1.60
2023-04-15T06:21:50.309Z,1.50
2023-04-15T06:24:25.649Z,1.50
2023-04-15T06:27:02.324Z,1.70
2023-04-15T06:29:34.831Z,1.80
2023-04-15T06:32:08.318Z,1.50
2023-04-15T06:34:43.820Z,1.80
2023-04-15T06:37:26.309Z,2.00
2023-04-15T06:40:02.454Z,3.50
2023-04-15T06:42:46.353Z,2.70
2023-04-15T06:45:22.161Z,1.60
2023-04-15T06:47:54.872Z,1.90
2023-04-15T06:50:32.907Z,1.90
2023-04-15T06:55:42.841Z,1.90
2023-04-15T06:58:15.762Z,1.70
2023-04-15T07:00:48.880Z,2.00
2023-04-15T07:03:22.556Z,1.70
2023-04-15T07:05:57.921Z,2.10
2023-04-15T07:08:30.728Z,2.80
2023-04-15T07:11:03.472Z,2.10
2023-04-15T07:13:56.438Z,2.10
2023-04-15T07:16:32.431Z,2.30
2023-04-15T07:19:15.112Z,2.00
2023-04-15T07:21:59.184Z,2.00
2023-04-15T07:24:32.279Z,1.90
2023-04-15T07:27:05.423Z,2.10
2023-04-15T07:29:37.973Z,1.70
2023-04-15T07:32:15.613Z,1.50
2023-04-15T07:34:52.881Z,1.60
2023-04-15T07:37:25.800Z,2.00
2023-04-15T07:39:58.721Z,1.50
2023-04-15T07:42:42.620Z,1.90
2023-04-15T07:45:17.794Z,1.90
2023-04-15T07:47:50.980Z,1.70
2023-04-15T07:50:23.972Z,1.90
2023-04-15T07:52:57.478Z,1.90
2023-04-15T07:55:30.759Z,1.70
2023-04-15T07:58:03.319Z,2.50
2023-04-15T08:00:36.259Z,2.20
2023-04-15T08:03:09.417Z,2.00
2023-04-15T08:05:42.289Z,2.00
2023-04-15T08:08:18.153Z,1.80
2023-04-15T08:10:52.601Z,1.70
2023-04-15T08:13:26.046Z,1.90
2023-04-15T08:16:20.503Z,2.10
2023-04-15T08:18:56.765Z,5.10
2023-04-15T08:21:31.031Z,2.90
2023-04-15T08:24:03.890Z,2.40
2023-04-15T08:26:37.206Z,2.00
2023-04-15T08:29:10.986Z,2.20
2023-04-15T08:31:43.645Z,2.10
2023-04-15T08:34:16.532Z,2.20
2023-04-15T08:36:49.519Z,1.70
2023-04-15T08:39:25.680Z,1.80
2023-04-15T08:42:01.788Z,1.60
2023-04-15T08:44:38.423Z,1.80
2023-04-15T08:47:14.438Z,1.90
2023-04-15T08:49:53.817Z,2.40
2023-04-15T08:52:41.244Z,1.90
2023-04-15T08:55:15.595Z,2.00
2023-04-15T08:57:52.337Z,1.80
2023-04-15T09:00:26.087Z,1.80
2023-04-15T09:03:00.448Z,2.00
2023-04-15T09:05:35.596Z,2.00
2023-04-15T09:08:09.190Z,1.90
2023-04-15T09:10:41.789Z,1.90
2023-04-15T09:13:15.103Z,1.80
2023-04-15T09:15:48.121Z,2.00
2023-04-15T09:18:32.300Z,2.10
2023-04-15T09:21:12.998Z,1.60
2023-04-15T09:23:58.874Z,1.80
2023-04-15T09:26:40.413Z,2.50
2023-04-15T09:29:22.279Z,1.70
2023-04-15T09:31:54.887Z,2.00
2023-04-15T09:34:38.128Z,1.90
2023-04-15T09:37:31.300Z,1.90
2023-04-15T09:40:05.216Z,1.70
2023-04-15T09:42:38.189Z,2.00
2023-04-15T09:45:15.690Z,1.90
2023-04-15T09:47:49.183Z,1.80
2023-04-15T09:50:32.750Z,1.90
2023-04-15T09:53:06.638Z,1.90
2023-04-15T09:55:52.559Z,2.30
2023-04-15T09:58:27.517Z,2.10
2023-04-15T10:01:01.919Z,2.30
2023-04-15T10:03:37.006Z,2.30
2023-04-15T10:06:10.746Z,2.00
2023-04-15T10:08:55.497Z,2.40
2023-04-15T10:11:31.924Z,2.10
2023-04-15T10:14:06.125Z,2.90
2023-04-15T10:16:44.917Z,2.30
2023-04-15T10:19:24.397Z,2.80
2023-04-15T10:21:57.790Z,2.20
2023-04-15T10:24:32.638Z,2.30
2023-04-15T10:27:09.436Z,3.00
2023-04-15T10:29:42.427Z,2.30
2023-04-15T10:32:16.021Z,2.90
2023-04-15T10:34:54.489Z,2.40
2023-04-15T10:37:37.833Z,2.60
2023-04-15T10:40:31.577Z,2.60
2023-04-15T10:43:05.822Z,2.30
2023-04-15T10:45:49.456Z,2.30
2023-04-15T10:48:22.385Z,2.40
2023-04-15T10:51:02.235Z,2.70
2023-04-15T10:54:00.869Z,2.10
2023-04-15T10:56:45.122Z,2.30
2023-04-15T10:59:32.793Z,1.70
2023-04-15T11:02:17.191Z,1.70
2023-04-15T11:05:01.151Z,2.60
2023-04-15T11:07:58.638Z,2.60
2023-04-15T11:10:57.838Z,1.90
2023-04-15T11:13:54.255Z,2.00
2023-04-15T11:16:48.635Z,2.00
2023-04-15T11:19:39.427Z,1.80
2023-04-15T11:22:21.230Z,1.80
2023-04-15T11:25:06.249Z,2.60
2023-04-15T11:27:38.886Z,2.10
2023-04-15T11:30:24.834Z,1.80
2023-04-15T11:33:01.246Z,2.20
2023-04-15T11:35:34.820Z,2.00
2023-04-15T11:38:10.205Z,1.80
2023-04-15T11:43:21.837Z,2.40
2023-04-15T11:46:06.057Z,1.90
2023-04-15T11:48:43.502Z,1.90
2023-04-15T11:51:16.763Z,2.00
2023-04-15T11:53:51.175Z,2.70
2023-04-15T11:56:25.706Z,2.40
2023-04-15T11:59:09.482Z,2.30
2023-04-15T12:01:45.409Z,4.20
2023-04-15T12:04:38.435Z,2.50
2023-04-15T12:07:14.195Z,2.20
2023-04-15T12:10:02.067Z,2.50
2023-04-15T12:12:45.381Z,2.30
2023-04-15T12:15:18.638Z,2.10
2023-04-15T12:17:56.108Z,2.60
2023-04-15T12:20:32.189Z,2.40
2023-04-15T12:23:09.931Z,2.30
2023-04-15T12:25:42.830Z,2.00
2023-04-15T12:28:15.838Z,2.00
2023-04-15T12:30:54.059Z,2.10
2023-04-15T12:33:37.417Z,3.30
2023-04-15T12:36:12.893Z,2.70
2023-04-15T12:38:45.468Z,3.10
2023-04-15T12:41:26.324Z,3.90
2023-04-15T12:43:58.999Z,3.00
2023-04-15T12:46:33.796Z,3.00
2023-04-15T12:49:19.795Z,3.60
2023-04-15T12:51:57.279Z,2.40
2023-04-15T12:54:41.258Z,2.60
2023-04-15T12:57:14.025Z,2.30
2023-04-15T12:59:46.535Z,2.50
2023-04-15T13:02:25.689Z,2.60
2023-04-15T13:04:58.902Z,2.60
2023-04-15T13:07:36.686Z,3.60
2023-04-15T13:10:11.954Z,2.90
2023-04-15T13:12:46.920Z,2.90
2023-04-15T13:15:21.036Z,3.80
2023-04-15T13:17:54.044Z,4.40
2023-04-15T13:20:27.795Z,4.70
2023-04-15T13:23:01.694Z,3.20
2023-04-15T13:25:34.248Z,3.00
2023-04-15T13:28:06.904Z,2.90
2023-04-15T13:30:43.035Z,2.60
2023-04-15T13:33:16.881Z,2.10
2023-04-15T13:35:50.550Z,1.40
2023-04-15T13:38:23.158Z,1.70
2023-04-15T13:40:58.027Z,1.70
2023-04-15T13:43:30.714Z,2.00
2023-04-15T13:46:04.830Z,2.20
2023-04-15T13:48:37.536Z,2.90
2023-04-15T13:51:10.678Z,5.60
2023-04-15T13:53:43.064Z,4.70
2023-04-15T13:56:16.162Z,4.70
2023-04-15T13:58:49.995Z,2.70
2023-04-15T14:01:22.520Z,2.60
2023-04-15T14:03:55.199Z,2.80
2023-04-15T14:06:28.712Z,3.50
2023-04-15T14:09:01.086Z,3.60
2023-04-15T14:11:37.834Z,3.30
2023-04-15T14:14:11.817Z,3.60
2023-04-15T14:16:44.546Z,3.00
2023-04-15T14:19:17.309Z,2.00
2023-04-15T14:21:49.969Z,2.30
2023-04-15T14:24:24.502Z,1.80
2023-04-15T14:26:57.628Z,2.30
2023-04-15T14:29:31.174Z,2.20
2023-04-15T14:32:11.414Z,2.40
2023-04-15T14:34:47.362Z,3.60
2023-04-15T14:37:19.862Z,3.50
2023-04-15T14:39:52.645Z,4.00
2023-04-15T14:42:25.015Z,3.30
2023-04-15T14:45:12.360Z,3.80
2023-04-15T14:47:56.123Z,3.30
2023-04-15T14:50:28.874Z,2.80
2023-04-15T14:53:01.674Z,2.90
2023-04-15T14:55:35.559Z,2.90
2023-04-15T14:58:08.328Z,3.00
2023-04-15T15:00:44.570Z,2.50
2023-04-15T15:03:17.141Z,3.60
2023-04-15T15:05:49.745Z,3.70
2023-04-15T15:08:23.188Z,4.30
2023-04-15T15:10:58.863Z,4.20
2023-04-15T15:13:31.686Z,3.50
2023-04-15T15:16:04.242Z,3.60
2023-04-15T15:18:37.210Z,4.30
2023-04-15T15:21:11.599Z,3.60
2023-04-15T15:23:44.444Z,3.60
2023-04-15T15:26:19.670Z,4.10
2023-04-15T15:28:52.564Z,4.20
2023-04-15T15:31:30.059Z,4.90
2023-04-15T15:34:22.809Z,4.90
2023-04-15T15:36:55.546Z,13.40
2023-04-15T15:39:28.934Z,5.90
2023-04-15T15:42:01.655Z,4.70
2023-04-15T15:44:36.338Z,4.90
2023-04-15T15:47:11.908Z,5.20
2023-04-15T15:49:57.041Z,5.00
2023-04-15T15:52:29.808Z,5.50
2023-04-15T15:55:03.277Z,6.60
2023-04-15T15:57:35.834Z,9.70
2023-04-15T16:00:12.543Z,28.40
2023-04-15T16:05:43.574Z,10.20
2023-04-15T16:08:16.107Z,9.20
2023-04-15T16:10:49.023Z,6.80
2023-04-15T16:13:21.700Z,7.20
2023-04-15T16:15:56.657Z,8.80
2023-04-15T16:18:29.595Z,7.70
2023-04-15T16:21:02.412Z,8.20
2023-04-15T16:23:35.453Z,13.70
2023-04-15T16:26:08.007Z,8.60
2023-04-15T16:28:40.724Z,7.40
2023-04-15T16:31:13.765Z,7.40
2023-04-15T16:33:46.411Z,6.80
2023-04-15T16:36:21.436Z,7.50
2023-04-15T16:38:56.778Z,6.50
2023-04-15T16:41:34.331Z,7.10
2023-04-15T16:44:09.315Z,6.20
2023-04-15T16:46:42.969Z,6.30
2023-04-15T16:49:16.144Z,6.70
2023-04-15T16:51:54.126Z,7.10
2023-04-15T16:54:29.171Z,7.20
2023-04-15T16:57:03.654Z,7.10
2023-04-15T16:59:39.006Z,7.90
2023-04-15T17:02:13.789Z,8.70
2023-04-15T17:04:46.774Z,9.60
2023-04-15T17:07:39.573Z,8.40
2023-04-15T17:10:17.120Z,7.90
2023-04-15T17:13:10.465Z,7.10
2023-04-15T17:15:46.095Z,6.90
2023-04-15T17:18:28.738Z,6.70
2023-04-15T17:21:03.685Z,6.40
2023-04-15T17:23:46.844Z,6.40
2023-04-15T17:26:20.114Z,6.50
2023-04-15T17:28:55.936Z,6.30
2023-04-15T17:31:41.189Z,6.10
2023-04-15T17:34:49.792Z,6.90
2023-04-15T17:37:37.094Z,10.40
2023-04-15T17:40:22.362Z,10.60
2023-04-15T17:43:06.006Z,13.30
2023-04-15T17:45:59.655Z,15.50
2023-04-15T17:48:32.399Z,15.40
2023-04-15T17:51:06.848Z,17.30
2023-04-15T17:53:39.524Z,22.20
2023-04-15T17:56:22.379Z,19.50
2023-04-15T17:58:54.913Z,21.30
2023-04-15T18:01:29.899Z,19.10
2023-04-15T18:04:04.190Z,20.20
2023-04-15T18:06:57.871Z,20.70
2023-04-15T18:09:30.535Z,21.90
2023-04-15T18:12:07.821Z,22.80
2023-04-15T18:14:43.480Z,20.90
2023-04-15T18:17:15.937Z,20.60
2023-04-15T18:19:48.544Z,17.70
2023-04-15T18:22:24.588Z,17.50
2023-04-15T18:24:59.228Z,13.80
2023-04-15T18:27:36.073Z,13.30
2023-04-15T18:30:11.399Z,12.10
2023-04-15T18:32:46.685Z,12.50
2023-04-15T18:35:31.018Z,11.80
2023-04-15T18:38:03.869Z,11.60
2023-04-15T18:40:36.373Z,12.60
2023-04-15T18:43:09.686Z,11.90
2023-04-15T18:45:43.562Z,11.80
2023-04-15T18:48:17.655Z,11.90
2023-04-15T18:50:54.233Z,11.60
2023-04-15T18:53:48.768Z,11.60
2023-04-15T18:56:33.919Z,13.20
2023-04-15T18:59:27.785Z,20.50
2023-04-15T19:02:13.765Z,19.20
2023-04-15T19:04:49.145Z,20.90
2023-04-15T19:07:36.837Z,20.40
2023-04-15T19:10:10.755Z,19.40
2023-04-15T19:12:43.272Z,21.10
2023-04-15T19:15:17.152Z,18.20
2023-04-15T19:17:50.243Z,17.60
2023-04-15T19:20:24.200Z,17.00
2023-04-15T19:22:57.738Z,16.90
2023-04-15T19:25:30.244Z,16.30
2023-04-15T19:28:05.397Z,17.40
2023-04-15T19:30:38.904Z,16.00
2023-04-15T19:33:23.465Z,16.20
2023-04-15T19:35:59.593Z,15.60
2023-04-15T19:38:36.332Z,11.90
2023-04-15T19:41:11.498Z,10.90
2023-04-15T19:43:54.987Z,11.10
2023-04-15T19:46:30.894Z,10.80
2023-04-15T19:49:04.240Z,10.60
2023-04-15T19:51:38.304Z,10.20
2023-04-15T19:54:13.855Z,9.30
2023-04-15T19:56:46.402Z,9.20
2023-04-15T19:59:21.416Z,8.80
2023-04-15T20:01:58.218Z,11.80
2023-04-15T20:04:34.182Z,22.10
2023-04-15T20:07:07.307Z,29.70
2023-04-15T20:09:39.710Z,29.70
2023-04-15T20:12:51.136Z,43.30
2023-04-15T20:15:09.512Z,36.40
2023-04-15T20:17:41.955Z,33.50
2023-04-15T20:20:27.672Z,32.30
2023-04-15T20:23:10.644Z,30.30
2023-04-15T20:25:46.092Z,26.00
2023-04-15T20:28:30.746Z,29.00
2023-04-15T20:31:03.892Z,32.20
2023-04-15T20:33:37.310Z,35.10
2023-04-15T20:36:09.915Z,36.20
2023-04-15T20:38:42.334Z,31.00
2023-04-15T20:41:16.602Z,30.80
2023-04-15T20:43:49.311Z,34.00
2023-04-15T20:46:22.727Z,33.80
2023-04-15T20:48:56.343Z,33.80
2023-04-15T20:51:33.143Z,35.50
2023-04-15T20:54:08.829Z,33.00
2023-04-15T20:56:41.346Z,34.30
2023-04-15T20:59:13.956Z,35.50
2023-04-15T21:01:46.924Z,34.10
2023-04-15T21:04:31.407Z,35.50
2023-04-15T21:07:03.765Z,36.00
2023-04-15T21:09:36.506Z,35.40
2023-04-15T21:12:12.330Z,33.80
2023-04-15T21:14:44.740Z,34.40
2023-04-15T21:17:18.507Z,37.40
2023-04-15T21:19:50.964Z,36.20
2023-04-15T21:22:23.518Z,34.90
2023-04-15T21:24:57.036Z,35.20
2023-04-15T21:27:29.530Z,36.40
2023-04-15T21:30:05.181Z,39.30
2023-04-15T21:32:40.403Z,41.30
2023-04-15T21:35:13.364Z,41.30
2023-04-15T21:37:46.132Z,37.40
2023-04-15T21:40:29.244Z,35.90
2023-04-15T21:43:04.819Z,37.80
2023-04-15T21:45:39.624Z,39.80
2023-04-15T21:48:14.014Z,34.70
2023-04-15T21:50:46.608Z,39.60
2023-04-15T21:53:19.374Z,49.30
2023-04-15T21:55:52.366Z,48.30
2023-04-15T21:58:27.346Z,40.90
2023-04-15T22:01:00.380Z,42.70
2023-04-15T22:03:34.980Z,41.60
2023-04-15T22:06:09.269Z,41.90
2023-04-15T22:08:55.200Z,43.50
2023-04-15T22:11:32.584Z,40.00
2023-04-15T22:14:07.061Z,43.70
2023-04-15T22:16:39.573Z,42.60
2023-04-15T22:19:14.737Z,40.40
2023-04-15T22:21:47.360Z,42.00
2023-04-15T22:24:38.222Z,40.30
2023-04-15T22:27:14.535Z,39.70
2023-04-15T22:29:50.392Z,40.10
2023-04-15T22:32:22.691Z,39.40
2023-04-15T22:34:56.612Z,41.30
2023-04-15T22:37:30.713Z,39.50
2023-04-15T22:40:06.939Z,39.80
2023-04-15T22:42:39.849Z,37.10
2023-04-15T22:45:27.527Z,39.80
2023-04-15T22:48:00.259Z,37.10
2023-04-15T22:50:33.040Z,36.50
2023-04-15T22:53:06.132Z,36.70
2023-04-15T22:55:51.958Z,38.00
2023-04-15T22:58:25.123Z,37.10
2023-04-15T23:00:59.341Z,37.30
2023-04-15T23:03:32.215Z,37.60
2023-04-15T23:06:14.595Z,39.10
2023-04-15T23:08:47.888Z,39.80
2023-04-15T23:11:20.848Z,37.40
2023-04-15T23:13:58.354Z,37.80
2023-04-15T23:16:31.342Z,39.70
2023-04-15T23:19:06.365Z,42.20
2023-04-15T23:21:41.131Z,43.30
2023-04-15T23:24:16.695Z,44.00
2023-04-15T23:26:49.575Z,44.40
2023-04-15T23:29:23.488Z,43.40
2023-04-15T23:31:59.538Z,40.80
2023-04-15T23:34:32.127Z,38.40
2023-04-15T23:37:06.009Z,37.60
2023-04-15T23:39:48.008Z,37.60
2023-04-15T23:42:24.278Z,35.90
2023-04-15T23:44:57.246Z,36.60
2023-04-15T23:47:29.703Z,36.60
2023-04-15T23:50:02.655Z,37.20
2023-04-15T23:52:45.015Z,36.40
2023-04-15T23:55:17.952Z,37.80
2023-04-15T23:57:50.414Z,37.90
